Roland, Canada
Current Conditions -  °F | °C
As of 8:35 AM on Saturday 25 Oct 2014 (Local Time) from K2C8 Reporting Station
Clear Clear  
Wind Chill: 33°   Ceiling: Unl
Heat Index: 41°   Visibility: 10mi
Dew Point: 30°   Wind: 14mph
Humidity: 65%   Direction: 290°WNW
Pressure: 30.02"   Gusts: 18mph
Location:  49.37°N, 97.95°W
Report Text: K2C8 251335Z AUTO 29012G16KT 10SM CLR 05/M01 A3002 RMK AO2
Loading
Personal Weather Stations






























Interactive Weather Map
Tropical Storm Tracking
New forecast layout! Learn more

10-Day Weather Forecast

Advertisements
Track Severe Weather on mobile